Карточка аэропорта UNWW

Внимание!
Информация на этой странице в стадии наполнения.
Если вы не увидели какой-то информации, или заметили неточность - пожалуйста сообщите нам!
Спасибо!
Команда RU-STAFF
Название аэропортаСпиченково
Название аэропорта (англ.)Spichenkovo
Превышение1023 ft. (311.8 m.)
Координаты53°48.714', 86°52.704'
Высота перехода800m
Эшелон переходаFL050
Коды ответчика5270-5277
Зона ОрВДНовосибирск РПИ (UNNT)
Данные METARUNWW 021700Z 34002MPS 0550 R19/P2000U FU NSC M17/M19 Q1024 R19/820245 NOSIG RMK QFE740
Проноз погоды (TAF)UNWW 021400Z 0215/0315 33003MPS 0800 FU FZFG NSC TEMPO 0215/0220 0500 FZFG SCT002 TEMPO 0220/0306 0150 FZFG OVC001 BECMG 0306/0307 3000 FU TEMPO 0307/0315 1200 FU
NOTAMshow/hide NOTAM
AWOS   TABLE

Информация о ВПП

ВПП Длина ВПП (м.) Покрытие Курс ВПП Частота ILS
012679Цементобетон14 
192679Цементобетон194111.1

Диспетчерские позиции

Позывной Наименование органа УВД Частота
UNWW_TWRНовокузнецк-Старт121.2
UNWW_APPНовокузнецк-Подход118.6



Спутниковое изображение